LFOB/BVA METAR and TAF weather

Enter ICAO airport designator
Station Type Date Time Source
LFOB METAR 2020/09/27 16:30 UTC NOAA

LFOB 271630Z AUTO 33020KT 9999 OVC010 14/12 Q1007 TEMPO 3000 DZ BR OVC002 BECMG 33010KT


Station Type Date Time Source
LFOB Decoded METAR 2020/09/27 16:30 UTC NOAA

Beauvais, France (LFOB) 49-28N 002-07E 111M
Sep 27, 2020 - 12:30 PM EDT / 2020.09.27 1630 UTC
Wind: from the NNW (330 degrees) at 23 MPH (20 KT):0
Visibility: greater than 7 mile(s):0
Sky conditions: overcast
Temperature: 57 F (14 C)
Dew Point: 53 F (12 C)
Relative Humidity: 87%
Pressure (altimeter): 29.74 in. Hg (1007 hPa)
ob: LFOB 271630Z AUTO 33020KT 9999 OVC010 14/12 Q1007 TEMPO 3000 DZ BR OVC002 BECMG 33010KT
cycle: 16

Station Type Date Time Source
LFOB TAF 2020/09/27 12:42 UTC NOAA

TAF TAF LFOB 271100Z 2712/2812 31023G33KT 9999 BKN025
TEMPO 2712/2714 3000 RA BKN010
BECMG 2714/2716 33010KT BKN010
TEMPO 2717/2806 3000 DZ BR OVC002
BECMG 2810/2812 BKN025

Example: see airport list